Detroit, Michigan
Traffic Map
Current Weather Conditions
Detroit, Michigan
Overcast
Overcast
57°
Feels Like: 57°
Wind Chill: 57° Ceiling: 2400
Heat Index: 57° Visibility: 15mi
Dew Point: 50° Wind: 9mph
Humidity: 77% Direction: 360° (N)
Pressure: 29.96in Gusts: 0mph
Raw Report DataCYQG 302000Z 36008KT 15SM OVC024 14/10 A2996 RMK CU8 SLP146
Traffic Incident Summary
Active as of:
Severity:
Category:
InformationThere was an issue retrieving the traffic information for this location. Please try a different location or try again shortly.
Advertisements
Track Severe Weather on mobile